createdAt,value
2017-08-11T00:01:14.007Z,91.70
2017-08-11T00:03:41.411Z,91.63
2017-08-11T00:06:08.812Z,90.85
2017-08-11T00:08:36.232Z,90.94
2017-08-11T00:11:03.639Z,91.42
2017-08-11T00:13:31.034Z,91.63
2017-08-11T00:15:58.450Z,91.79
2017-08-11T00:18:25.847Z,91.64
2017-08-11T00:20:53.252Z,91.64
2017-08-11T00:23:20.662Z,91.65
2017-08-11T00:25:48.066Z,91.74
2017-08-11T00:28:15.476Z,91.86
2017-08-11T00:30:42.927Z,91.81
2017-08-11T00:33:10.323Z,91.45
2017-08-11T00:35:37.722Z,91.36
2017-08-11T00:38:05.139Z,91.16
2017-08-11T00:40:32.539Z,91.24
2017-08-11T00:42:59.939Z,91.22
2017-08-11T00:45:27.360Z,91.20
2017-08-11T00:47:54.755Z,91.43
2017-08-11T00:50:22.149Z,91.62
2017-08-11T00:52:49.824Z,91.41
2017-08-11T00:55:17.224Z,92.27
2017-08-11T00:57:44.627Z,92.06
2017-08-11T01:00:12.035Z,92.11
2017-08-11T01:02:39.436Z,92.25
2017-08-11T01:05:06.843Z,92.06
2017-08-11T01:07:34.264Z,92.34
2017-08-11T01:10:01.659Z,92.94
2017-08-11T01:12:29.064Z,93.21
2017-08-11T01:14:56.480Z,93.87
2017-08-11T01:17:23.883Z,93.79
2017-08-11T01:19:51.279Z,93.98
2017-08-11T01:22:18.834Z,94.03
2017-08-11T01:24:46.237Z,93.90
2017-08-11T01:27:13.631Z,93.48
2017-08-11T01:29:41.053Z,92.99
2017-08-11T01:32:08.447Z,92.74
2017-08-11T01:34:35.843Z,92.80
2017-08-11T01:37:03.263Z,92.85
2017-08-11T01:39:30.664Z,92.99
2017-08-11T01:41:58.062Z,93.09
2017-08-11T01:44:25.475Z,92.53
2017-08-11T01:46:52.880Z,92.68
2017-08-11T01:49:20.274Z,92.89
2017-08-11T01:51:47.695Z,93.03
2017-08-11T01:54:15.096Z,93.05
2017-08-11T01:56:42.495Z,92.90
2017-08-11T01:59:09.919Z,92.90
2017-08-11T02:01:37.314Z,93.06
2017-08-11T02:04:04.714Z,92.88
2017-08-11T02:06:32.127Z,93.24
2017-08-11T02:08:59.523Z,93.00
2017-08-11T02:11:26.936Z,92.81
2017-08-11T02:13:54.348Z,93.37
2017-08-11T02:16:21.743Z,92.74
2017-08-11T02:18:49.151Z,92.85
2017-08-11T02:21:16.571Z,92.58
2017-08-11T02:23:43.975Z,92.78
2017-08-11T02:26:11.377Z,92.82
2017-08-11T02:28:38.792Z,92.69
2017-08-11T02:31:06.189Z,92.91
2017-08-11T02:33:33.587Z,92.93
2017-08-11T02:36:01.037Z,93.05
2017-08-11T02:38:28.420Z,93.04
2017-08-11T02:40:55.830Z,92.21
2017-08-11T02:43:23.247Z,92.00
2017-08-11T02:45:50.647Z,92.05
2017-08-11T02:48:18.076Z,92.27
2017-08-11T02:50:45.496Z,92.50
2017-08-11T02:53:12.896Z,92.64
2017-08-11T02:55:40.293Z,92.53
2017-08-11T02:58:07.721Z,92.45
2017-08-11T03:00:35.117Z,93.37
2017-08-11T03:03:02.536Z,93.67
2017-08-11T03:05:29.951Z,93.48
2017-08-11T03:07:57.360Z,93.20
2017-08-11T03:10:24.751Z,93.01
2017-08-11T03:12:52.167Z,93.09
2017-08-11T03:15:19.566Z,93.11
2017-08-11T03:17:46.968Z,93.09
2017-08-11T03:20:14.383Z,93.08
2017-08-11T03:22:41.783Z,92.47
2017-08-11T03:25:09.224Z,92.70
2017-08-11T03:27:36.648Z,92.61
2017-08-11T03:30:04.047Z,92.49
2017-08-11T03:32:31.448Z,92.07
2017-08-11T03:34:58.862Z,92.08
2017-08-11T03:37:26.271Z,91.89
2017-08-11T03:39:53.680Z,92.09
2017-08-11T03:42:21.092Z,92.33
2017-08-11T03:44:48.508Z,92.21
2017-08-11T03:47:15.907Z,92.49
2017-08-11T03:49:43.323Z,92.52
2017-08-11T03:52:10.723Z,92.64
2017-08-11T03:54:38.128Z,92.64
2017-08-11T03:57:05.547Z,92.61
2017-08-11T03:59:32.944Z,92.51
2017-08-11T04:02:00.343Z,92.21
2017-08-11T04:04:27.763Z,91.80
2017-08-11T04:06:55.171Z,92.11
2017-08-11T04:09:22.571Z,92.50
2017-08-11T04:11:50.006Z,92.42
2017-08-11T04:14:17.402Z,92.16
2017-08-11T04:16:44.807Z,92.17
2017-08-11T04:19:12.216Z,92.47
2017-08-11T04:21:39.612Z,92.51
2017-08-11T04:24:07.006Z,93.09
2017-08-11T04:26:34.426Z,93.45
2017-08-11T04:29:01.824Z,93.36
2017-08-11T04:31:29.218Z,93.41
2017-08-11T04:33:56.640Z,93.60
2017-08-11T04:36:24.036Z,93.67
2017-08-11T04:38:51.447Z,93.56
2017-08-11T04:41:18.860Z,93.49
2017-08-11T04:43:46.264Z,93.71
2017-08-11T04:46:13.661Z,93.58
2017-08-11T04:48:41.075Z,93.48
2017-08-11T04:51:08.470Z,93.63
2017-08-11T04:53:35.867Z,93.50
2017-08-11T04:56:03.283Z,93.27
2017-08-11T04:58:30.683Z,93.28
2017-08-11T05:00:58.082Z,93.07
2017-08-11T05:03:25.491Z,92.95
2017-08-11T05:05:52.895Z,92.99
2017-08-11T05:08:20.294Z,92.91
2017-08-11T05:10:47.698Z,92.75
2017-08-11T05:13:15.095Z,92.40
2017-08-11T05:15:42.495Z,92.81
2017-08-11T05:18:09.915Z,92.95
2017-08-11T05:20:37.310Z,92.68
2017-08-11T05:23:04.711Z,92.83
2017-08-11T05:25:32.436Z,92.71
2017-08-11T05:27:59.824Z,92.59
2017-08-11T05:30:27.219Z,92.51
2017-08-11T05:32:54.632Z,91.29
2017-08-11T05:35:22.031Z,91.76
2017-08-11T05:37:49.430Z,91.65
2017-08-11T05:40:16.855Z,91.04
2017-08-11T05:42:44.250Z,91.21
2017-08-11T05:45:11.648Z,91.14
2017-08-11T05:47:39.062Z,91.78
2017-08-11T05:50:06.459Z,91.67
2017-08-11T05:52:33.855Z,91.61
2017-08-11T05:55:01.266Z,91.41
2017-08-11T05:57:28.671Z,91.26
2017-08-11T05:59:56.082Z,91.71
2017-08-11T06:02:23.511Z,91.47
2017-08-11T06:04:50.908Z,91.09
2017-08-11T06:07:18.303Z,91.30
2017-08-11T06:09:45.714Z,91.30
2017-08-11T06:12:13.111Z,91.03
2017-08-11T06:14:40.511Z,91.49
2017-08-11T06:17:07.938Z,91.75
2017-08-11T06:19:35.335Z,91.79
2017-08-11T06:22:02.736Z,91.77
2017-08-11T06:24:30.156Z,91.43
2017-08-11T06:26:57.555Z,91.20
2017-08-11T06:29:24.951Z,90.90
2017-08-11T06:31:52.363Z,91.72
2017-08-11T06:34:19.766Z,91.75
2017-08-11T06:36:47.164Z,91.77
2017-08-11T06:39:14.575Z,91.55
2017-08-11T06:41:41.984Z,91.72
2017-08-11T06:44:09.388Z,91.28
2017-08-11T06:46:36.836Z,91.48
2017-08-11T06:49:04.240Z,90.66
2017-08-11T06:51:31.647Z,90.41
2017-08-11T06:53:59.055Z,89.78
2017-08-11T06:56:26.460Z,89.16
2017-08-11T06:58:53.855Z,88.71
2017-08-11T07:01:21.267Z,87.94
2017-08-11T07:03:48.663Z,87.81
2017-08-11T07:06:16.063Z,87.72
2017-08-11T07:08:43.477Z,87.06
2017-08-11T07:11:10.876Z,87.63
2017-08-11T07:13:38.277Z,87.57
2017-08-11T07:16:05.686Z,87.37
2017-08-11T07:18:33.083Z,87.55
2017-08-11T07:21:00.487Z,87.77
2017-08-11T07:23:27.912Z,87.78
2017-08-11T07:25:55.311Z,88.04
2017-08-11T07:28:22.707Z,88.32
2017-08-11T07:30:50.128Z,87.45
2017-08-11T07:33:17.527Z,87.91
2017-08-11T07:35:44.923Z,85.96
2017-08-11T07:38:12.331Z,87.90
2017-08-11T07:40:39.743Z,88.32
2017-08-11T07:43:07.153Z,87.45
2017-08-11T07:45:34.568Z,88.01
2017-08-11T07:48:01.968Z,87.36
2017-08-11T07:50:29.371Z,86.30
2017-08-11T07:52:56.799Z,87.56
2017-08-11T07:55:24.200Z,86.86
2017-08-11T07:57:51.596Z,87.74
2017-08-11T08:00:19.011Z,87.24
2017-08-11T08:02:46.407Z,86.47
2017-08-11T08:05:13.799Z,87.03
2017-08-11T08:07:41.218Z,87.20
2017-08-11T08:10:08.627Z,87.21
2017-08-11T08:12:36.021Z,87.22
2017-08-11T08:15:03.460Z,85.87
2017-08-11T08:17:30.868Z,86.45
2017-08-11T08:19:58.276Z,87.21
2017-08-11T08:22:25.685Z,87.31
2017-08-11T08:24:53.083Z,86.56
2017-08-11T08:27:20.488Z,85.70
2017-08-11T08:29:47.897Z,86.13
2017-08-11T08:32:15.299Z,86.12
2017-08-11T08:34:42.699Z,86.02
2017-08-11T08:37:10.122Z,86.33
2017-08-11T08:39:37.530Z,86.95
2017-08-11T08:42:04.931Z,85.66
2017-08-11T08:44:32.359Z,85.12
2017-08-11T08:46:59.763Z,85.14
2017-08-11T08:49:27.163Z,85.00
2017-08-11T08:51:54.572Z,85.81
2017-08-11T08:54:21.972Z,86.43
2017-08-11T08:56:49.368Z,86.01
2017-08-11T08:59:16.783Z,85.48
2017-08-11T09:01:44.180Z,84.60
2017-08-11T09:04:11.582Z,84.25
2017-08-11T09:06:38.998Z,84.74
2017-08-11T09:09:06.399Z,84.38
2017-08-11T09:11:33.800Z,84.31
2017-08-11T09:14:01.224Z,84.91
2017-08-11T09:16:28.620Z,83.81
2017-08-11T09:18:56.024Z,84.50
2017-08-11T09:21:23.444Z,83.24
2017-08-11T09:23:50.843Z,83.31
2017-08-11T09:26:29.907Z,82.95
2017-08-11T09:29:09.114Z,82.86
2017-08-11T09:31:48.314Z,79.93
2017-08-11T09:34:27.347Z,81.72
2017-08-11T09:36:54.770Z,81.07
2017-08-11T09:39:22.165Z,82.48
2017-08-11T09:41:49.563Z,82.96
2017-08-11T09:44:16.980Z,81.55
2017-08-11T09:46:44.378Z,80.58
2017-08-11T09:49:11.783Z,80.37
2017-08-11T09:51:39.190Z,80.99
2017-08-11T09:54:06.612Z,81.68
2017-08-11T09:56:34.008Z,80.76
2017-08-11T09:59:01.427Z,80.23
2017-08-11T10:01:28.831Z,80.00
2017-08-11T10:03:56.230Z,80.13
2017-08-11T10:06:23.793Z,81.32
2017-08-11T10:08:51.191Z,80.23
2017-08-11T10:11:18.594Z,80.34
2017-08-11T10:13:46.011Z,79.23
2017-08-11T10:16:13.415Z,79.31
2017-08-11T10:18:40.816Z,78.50
2017-08-11T10:21:08.236Z,79.76
2017-08-11T10:23:35.628Z,78.33
2017-08-11T10:26:03.027Z,78.29
2017-08-11T10:28:30.443Z,77.43
2017-08-11T10:30:57.846Z,77.59
2017-08-11T10:33:25.239Z,77.39
2017-08-11T10:35:52.652Z,79.77
2017-08-11T10:38:20.055Z,80.02
2017-08-11T10:40:47.458Z,78.25
2017-08-11T10:43:14.881Z,77.92
2017-08-11T10:45:42.287Z,77.38
2017-08-11T10:48:09.687Z,76.07
2017-08-11T10:50:37.103Z,75.91
2017-08-11T10:53:04.503Z,75.15
2017-08-11T10:55:31.907Z,74.80
2017-08-11T10:57:59.322Z,76.20
2017-08-11T11:00:26.763Z,76.97
2017-08-11T11:02:54.127Z,77.75
2017-08-11T11:05:21.543Z,78.04
2017-08-11T11:07:48.947Z,79.06
2017-08-11T11:10:16.344Z,79.76
2017-08-11T11:12:43.761Z,80.55
2017-08-11T11:15:11.163Z,81.61
2017-08-11T11:17:38.575Z,81.25
2017-08-11T11:20:05.974Z,81.58
2017-08-11T11:22:33.379Z,81.57
2017-08-11T11:25:00.779Z,83.40
2017-08-11T11:27:28.198Z,83.20
2017-08-11T11:29:55.602Z,81.88
2017-08-11T11:32:23.016Z,81.43
2017-08-11T11:34:50.431Z,83.48
2017-08-11T11:37:17.830Z,83.73
2017-08-11T11:39:45.238Z,83.46
2017-08-11T11:42:12.655Z,84.20
2017-08-11T11:44:40.064Z,85.59
2017-08-11T11:47:07.474Z,84.35
2017-08-11T11:49:34.888Z,85.47
2017-08-11T11:52:02.291Z,86.01
2017-08-11T11:54:29.696Z,86.47
2017-08-11T11:56:57.099Z,86.17
2017-08-11T11:59:24.506Z,86.65
2017-08-11T12:01:51.903Z,86.58
2017-08-11T12:04:19.327Z,87.63
2017-08-11T12:06:46.714Z,87.95
2017-08-11T12:09:14.112Z,87.44
2017-08-11T12:11:41.534Z,87.23
2017-08-11T12:14:08.931Z,87.24
2017-08-11T12:16:36.335Z,88.25
2017-08-11T12:19:03.751Z,87.41
2017-08-11T12:21:31.151Z,88.18
2017-08-11T12:23:58.559Z,87.55
2017-08-11T12:26:26.824Z,87.97
2017-08-11T12:28:54.219Z,87.19
2017-08-11T12:31:21.614Z,87.92
2017-08-11T12:33:49.039Z,88.59
2017-08-11T12:36:16.444Z,88.92
2017-08-11T12:38:43.838Z,87.66
2017-08-11T12:41:11.260Z,87.73
2017-08-11T12:43:38.663Z,87.70
2017-08-11T12:46:06.059Z,87.36
2017-08-11T12:48:33.480Z,88.33
2017-08-11T12:51:00.876Z,87.57
2017-08-11T12:53:28.271Z,87.77
2017-08-11T12:55:55.696Z,87.18
2017-08-11T12:58:23.094Z,87.30
2017-08-11T13:00:50.498Z,87.15
2017-08-11T13:03:17.903Z,86.51
2017-08-11T13:05:45.303Z,87.42
2017-08-11T13:08:12.703Z,85.07
2017-08-11T13:10:40.123Z,86.67
2017-08-11T13:13:07.524Z,87.68
2017-08-11T13:15:34.994Z,87.73
2017-08-11T13:18:02.431Z,87.71
2017-08-11T13:20:29.831Z,88.12
2017-08-11T13:22:57.227Z,88.00
2017-08-11T13:25:24.643Z,87.90
2017-08-11T13:27:52.044Z,87.81
2017-08-11T13:30:19.451Z,88.25
2017-08-11T13:32:46.866Z,88.54
2017-08-11T13:35:14.264Z,87.77
2017-08-11T13:37:41.664Z,87.86
2017-08-11T13:40:09.096Z,88.57
2017-08-11T13:42:36.495Z,88.80
2017-08-11T13:45:03.890Z,88.58
2017-08-11T13:47:31.308Z,89.35
2017-08-11T13:49:58.706Z,89.22
2017-08-11T13:52:26.103Z,89.46
2017-08-11T13:54:53.515Z,89.88
2017-08-11T13:57:20.915Z,90.01
2017-08-11T13:59:48.327Z,89.49
2017-08-11T14:02:15.742Z,90.08
2017-08-11T14:04:43.139Z,89.95
2017-08-11T14:07:10.531Z,90.20
2017-08-11T14:09:37.947Z,90.44
2017-08-11T14:12:05.348Z,89.40
2017-08-11T14:14:33.691Z,89.73
2017-08-11T14:17:01.271Z,89.77
2017-08-11T14:19:28.663Z,90.02
2017-08-11T14:21:56.075Z,89.62
2017-08-11T14:24:28.987Z,89.54
2017-08-11T14:26:56.394Z,89.24
2017-08-11T14:29:23.815Z,89.51
2017-08-11T14:31:51.275Z,89.68
2017-08-11T14:34:18.761Z,89.96
2017-08-11T14:36:46.146Z,89.61
2017-08-11T14:39:13.571Z,89.56
2017-08-11T14:41:40.973Z,89.79
2017-08-11T14:44:08.409Z,89.45
2017-08-11T14:46:35.835Z,89.57
2017-08-11T14:49:03.267Z,89.73
2017-08-11T14:51:30.655Z,90.03
2017-08-11T14:53:58.099Z,90.18
2017-08-11T14:56:25.528Z,90.15
2017-08-11T14:58:52.955Z,89.94
2017-08-11T15:01:20.363Z,89.78
2017-08-11T15:03:47.822Z,89.87
2017-08-11T15:06:15.235Z,89.85
2017-08-11T15:08:42.702Z,88.93
2017-08-11T15:11:10.137Z,88.47
2017-08-11T15:13:37.546Z,88.11
2017-08-11T15:16:05.022Z,87.80
2017-08-11T15:18:32.452Z,87.44
2017-08-11T15:20:59.860Z,87.50
2017-08-11T15:23:27.292Z,87.49
2017-08-11T15:25:54.686Z,87.45
2017-08-11T15:28:22.111Z,88.04
2017-08-11T15:30:49.546Z,88.57
2017-08-11T15:33:16.958Z,89.18
2017-08-11T15:35:44.385Z,89.41
2017-08-11T15:38:11.837Z,89.55
2017-08-11T15:40:39.235Z,89.59
2017-08-11T15:43:06.670Z,89.78
2017-08-11T15:45:34.883Z,89.80
2017-08-11T15:48:02.299Z,89.86
2017-08-11T15:50:29.703Z,89.96
2017-08-11T15:52:57.142Z,90.01
2017-08-11T15:55:24.545Z,90.02
2017-08-11T15:57:51.943Z,90.07
2017-08-11T16:00:19.371Z,90.09
2017-08-11T16:02:46.771Z,89.25
2017-08-11T16:05:14.196Z,89.08
2017-08-11T16:07:41.664Z,89.32
2017-08-11T16:10:09.105Z,89.64
2017-08-11T16:12:36.547Z,89.17
2017-08-11T16:15:04.011Z,89.43
2017-08-11T16:17:31.423Z,88.80
2017-08-11T16:19:58.850Z,88.14
2017-08-11T16:22:26.291Z,88.78
2017-08-11T16:24:53.712Z,89.19
2017-08-11T16:27:21.139Z,89.43
2017-08-11T16:29:48.551Z,89.57
2017-08-11T16:32:15.949Z,88.81
2017-08-11T16:34:43.392Z,88.62
2017-08-11T16:37:10.835Z,88.49
2017-08-11T16:39:38.279Z,88.40
2017-08-11T16:42:05.663Z,88.06
2017-08-11T16:44:33.099Z,88.10
2017-08-11T16:47:00.546Z,87.90
2017-08-11T16:49:28.047Z,87.96
2017-08-11T16:51:55.594Z,88.33
2017-08-11T16:54:22.995Z,88.08
2017-08-11T16:56:50.412Z,86.88
2017-08-11T16:59:17.821Z,87.41
2017-08-11T17:01:45.259Z,87.81
2017-08-11T17:04:12.667Z,88.09
2017-08-11T17:06:40.103Z,87.94
2017-08-11T17:09:07.507Z,88.15
2017-08-11T17:11:34.956Z,88.39
2017-08-11T17:14:02.368Z,88.70
2017-08-11T17:16:29.787Z,88.72
2017-08-11T17:18:57.247Z,87.78
2017-08-11T17:21:24.664Z,88.38
2017-08-11T17:23:52.156Z,88.74
2017-08-11T17:26:19.572Z,88.20
2017-08-11T17:28:47.023Z,88.49
2017-08-11T17:31:14.451Z,88.77
2017-08-11T17:33:41.868Z,89.07
2017-08-11T17:36:09.331Z,89.33
2017-08-11T17:38:36.731Z,89.36
2017-08-11T17:41:04.168Z,89.51
2017-08-11T17:43:31.586Z,89.60
2017-08-11T17:45:59.029Z,89.73
2017-08-11T17:48:26.419Z,89.73
2017-08-11T17:50:53.858Z,89.84
2017-08-11T17:53:21.335Z,89.96
2017-08-11T17:55:48.727Z,89.69
2017-08-11T17:58:16.165Z,89.42
2017-08-11T18:00:43.571Z,89.54
2017-08-11T18:03:10.997Z,89.75
2017-08-11T18:05:38.411Z,89.92
2017-08-11T18:08:05.839Z,90.03
2017-08-11T18:10:33.267Z,90.05
2017-08-11T18:13:00.691Z,90.11
2017-08-11T18:15:28.121Z,90.20
2017-08-11T18:17:55.523Z,90.22
2017-08-11T18:20:22.950Z,90.23
2017-08-11T18:22:50.392Z,90.30
2017-08-11T18:25:17.828Z,90.32
2017-08-11T18:27:45.267Z,90.33
2017-08-11T18:30:12.668Z,90.28
2017-08-11T18:32:40.091Z,90.25
2017-08-11T18:35:07.507Z,90.35
2017-08-11T18:37:34.947Z,90.15
2017-08-11T18:40:02.348Z,89.87
2017-08-11T18:42:29.764Z,89.94
2017-08-11T18:44:57.164Z,89.73
2017-08-11T18:47:24.619Z,90.03
2017-08-11T18:49:52.063Z,90.18
2017-08-11T18:52:19.491Z,89.93
2017-08-11T18:54:46.895Z,90.08
2017-08-11T18:57:14.307Z,90.05
2017-08-11T18:59:41.711Z,90.12
2017-08-11T19:02:09.108Z,90.32
2017-08-11T19:04:36.519Z,90.53
2017-08-11T19:07:03.918Z,90.33
2017-08-11T19:09:31.316Z,90.09
2017-08-11T19:11:58.731Z,90.15
2017-08-11T19:14:26.127Z,90.27
2017-08-11T19:16:53.530Z,90.36
2017-08-11T19:19:20.939Z,90.54
2017-08-11T19:21:48.347Z,90.68
2017-08-11T19:24:15.743Z,90.70
2017-08-11T19:26:43.153Z,90.67
2017-08-11T19:29:10.551Z,90.74
2017-08-11T19:31:37.951Z,90.74
2017-08-11T19:34:05.371Z,89.93
2017-08-11T19:36:32.774Z,90.11
2017-08-11T19:39:00.171Z,89.78
2017-08-11T19:41:27.587Z,90.04
2017-08-11T19:43:54.983Z,90.31
2017-08-11T19:46:22.378Z,90.50
2017-08-11T19:48:49.786Z,90.88
2017-08-11T19:51:17.204Z,90.68
2017-08-11T19:53:44.608Z,90.35
2017-08-11T19:56:12.029Z,90.52
2017-08-11T19:58:39.427Z,90.70
2017-08-11T20:01:06.827Z,90.78
2017-08-11T20:03:34.243Z,90.84
2017-08-11T20:06:01.653Z,90.76
2017-08-11T20:08:29.050Z,90.79
2017-08-11T20:10:56.464Z,90.90
2017-08-11T20:13:23.865Z,90.99
2017-08-11T20:15:51.269Z,91.00
2017-08-11T20:18:18.696Z,91.06
2017-08-11T20:20:46.094Z,91.05
2017-08-11T20:23:13.492Z,90.91
2017-08-11T20:25:40.908Z,90.82
2017-08-11T20:28:08.308Z,90.66
2017-08-11T20:30:35.714Z,90.85
2017-08-11T20:33:03.396Z,90.98
2017-08-11T20:35:30.795Z,91.12
2017-08-11T20:37:58.218Z,91.19
2017-08-11T20:40:25.624Z,91.23
2017-08-11T20:42:53.017Z,91.20
2017-08-11T20:45:20.422Z,91.23
2017-08-11T20:47:47.865Z,91.28
2017-08-11T20:50:15.266Z,91.31
2017-08-11T20:52:42.662Z,91.30
2017-08-11T20:55:10.084Z,91.33
2017-08-11T20:57:37.499Z,90.74
2017-08-11T21:00:04.900Z,91.00
2017-08-11T21:02:32.330Z,90.89
2017-08-11T21:04:59.736Z,90.90
2017-08-11T21:07:27.136Z,89.82
2017-08-11T21:09:54.547Z,90.10
2017-08-11T21:12:21.963Z,90.40
2017-08-11T21:14:49.360Z,90.62
2017-08-11T21:17:16.782Z,90.55
2017-08-11T21:19:44.191Z,90.83
2017-08-11T21:22:11.591Z,90.96
2017-08-11T21:24:39.020Z,90.58
2017-08-11T21:27:06.423Z,90.80
2017-08-11T21:29:34.014Z,91.01
2017-08-11T21:32:01.424Z,91.19
2017-08-11T21:34:28.815Z,91.29
2017-08-11T21:36:56.254Z,91.42
2017-08-11T21:39:23.651Z,91.47
2017-08-11T21:41:51.063Z,91.53
2017-08-11T21:44:18.446Z,91.47
2017-08-11T21:46:45.879Z,91.54
2017-08-11T21:49:13.315Z,91.58
2017-08-11T21:51:40.720Z,91.63
2017-08-11T21:54:08.151Z,91.27
2017-08-11T21:56:35.588Z,91.33
2017-08-11T21:59:02.994Z,91.47
2017-08-11T22:01:30.415Z,91.44
2017-08-11T22:03:57.835Z,91.26
2017-08-11T22:06:25.265Z,91.35
2017-08-11T22:08:52.671Z,91.47
2017-08-11T22:11:20.098Z,91.56
2017-08-11T22:13:47.505Z,91.40
2017-08-11T22:16:14.930Z,91.51
2017-08-11T22:18:42.343Z,91.63
2017-08-11T22:21:09.735Z,91.54
2017-08-11T22:23:37.156Z,91.63
2017-08-11T22:26:04.558Z,91.74
2017-08-11T22:28:31.999Z,91.73
2017-08-11T22:30:59.432Z,91.84
2017-08-11T22:33:26.838Z,91.85
2017-08-11T22:35:54.266Z,91.86
2017-08-11T22:38:21.683Z,91.84
2017-08-11T22:40:49.088Z,91.78
2017-08-11T22:43:16.499Z,91.57
2017-08-11T22:45:43.962Z,91.29
2017-08-11T22:48:11.371Z,91.39
2017-08-11T22:50:38.770Z,91.23
2017-08-11T22:53:06.200Z,90.76
2017-08-11T22:55:33.925Z,90.53
2017-08-11T22:58:01.315Z,90.55
2017-08-11T23:00:28.730Z,90.36
2017-08-11T23:02:56.163Z,90.73
2017-08-11T23:05:23.594Z,91.15
2017-08-11T23:07:51.006Z,91.42
2017-08-11T23:10:18.425Z,91.59
2017-08-11T23:12:45.819Z,91.67
2017-08-11T23:15:13.255Z,91.79
2017-08-11T23:17:40.655Z,91.85
2017-08-11T23:20:08.063Z,91.81
2017-08-11T23:22:35.480Z,91.65
2017-08-11T23:25:02.884Z,91.45
2017-08-11T23:27:30.279Z,91.03
2017-08-11T23:29:57.707Z,91.30
2017-08-11T23:32:25.111Z,91.44
2017-08-11T23:34:52.511Z,91.70
2017-08-11T23:37:19.923Z,91.76
2017-08-11T23:39:47.332Z,91.82
2017-08-11T23:42:14.731Z,91.84
2017-08-11T23:44:42.151Z,91.87
2017-08-11T23:47:09.550Z,91.90
2017-08-11T23:49:36.948Z,91.70
2017-08-11T23:52:04.396Z,91.81
2017-08-11T23:54:31.799Z,92.02
2017-08-11T23:56:59.226Z,91.91
2017-08-11T23:59:26.647Z,91.85
